sensor_id;sensor_type;location;lat;lon;timestamp;temperature;humidity
36424;DHT22;22458;45.328;9.514;2023-05-15T00:00:22;16.40;90.60
36424;DHT22;22458;45.328;9.514;2023-05-15T00:02:48;16.30;90.70
36424;DHT22;22458;45.328;9.514;2023-05-15T00:05:14;16.20;90.90
36424;DHT22;22458;45.328;9.514;2023-05-15T00:07:40;16.20;90.90
36424;DHT22;22458;45.328;9.514;2023-05-15T00:10:07;16.10;91.00
36424;DHT22;22458;45.328;9.514;2023-05-15T00:12:33;15.90;91.20
36424;DHT22;22458;45.328;9.514;2023-05-15T00:14:59;15.90;91.20
36424;DHT22;22458;45.328;9.514;2023-05-15T00:17:25;15.90;91.20
36424;DHT22;22458;45.328;9.514;2023-05-15T00:19:51;16.00;91.30
36424;DHT22;22458;45.328;9.514;2023-05-15T00:22:22;16.10;91.20
36424;DHT22;22458;45.328;9.514;2023-05-15T00:24:48;16.10;91.10
36424;DHT22;22458;45.328;9.514;2023-05-15T00:27:14;16.10;91.00
36424;DHT22;22458;45.328;9.514;2023-05-15T00:29:39;16.10;91.00
36424;DHT22;22458;45.328;9.514;2023-05-15T00:32:05;16.20;90.90
36424;DHT22;22458;45.328;9.514;2023-05-15T00:34:31;16.20;90.80
36424;DHT22;22458;45.328;9.514;2023-05-15T00:36:58;16.30;90.70
36424;DHT22;22458;45.328;9.514;2023-05-15T00:39:25;16.30;90.60
36424;DHT22;22458;45.328;9.514;2023-05-15T00:41:51;16.40;90.50
36424;DHT22;22458;45.328;9.514;2023-05-15T00:44:18;16.30;90.40
36424;DHT22;22458;45.328;9.514;2023-05-15T00:46:47;16.30;90.60
36424;DHT22;22458;45.328;9.514;2023-05-15T00:49:14;16.30;90.40
36424;DHT22;22458;45.328;9.514;2023-05-15T00:51:41;16.30;90.40
36424;DHT22;22458;45.328;9.514;2023-05-15T00:54:08;16.30;90.30
36424;DHT22;22458;45.328;9.514;2023-05-15T00:56:35;16.30;90.30
36424;DHT22;22458;45.328;9.514;2023-05-15T00:59:02;16.30;90.30
36424;DHT22;22458;45.328;9.514;2023-05-15T01:01:28;16.40;90.30
36424;DHT22;22458;45.328;9.514;2023-05-15T01:04:01;16.30;90.30
36424;DHT22;22458;45.328;9.514;2023-05-15T01:06:31;16.40;90.20
36424;DHT22;22458;45.328;9.514;2023-05-15T01:08:59;16.30;90.20
36424;DHT22;22458;45.328;9.514;2023-05-15T01:11:29;16.30;90.30
36424;DHT22;22458;45.328;9.514;2023-05-15T01:14:06;16.20;90.30
36424;DHT22;22458;45.328;9.514;2023-05-15T01:16:33;16.30;90.30
36424;DHT22;22458;45.328;9.514;2023-05-15T01:19:02;16.30;90.10
36424;DHT22;22458;45.328;9.514;2023-05-15T01:24:37;16.20;90.20
36424;DHT22;22458;45.328;9.514;2023-05-15T01:30:18;16.20;90.10
36424;DHT22;22458;45.328;9.514;2023-05-15T01:38:43;16.10;90.10
36424;DHT22;22458;45.328;9.514;2023-05-15T01:43:42;16.10;90.20
36424;DHT22;22458;45.328;9.514;2023-05-15T01:46:13;16.10;90.30
36424;DHT22;22458;45.328;9.514;2023-05-15T01:48:39;16.00;90.20
36424;DHT22;22458;45.328;9.514;2023-05-15T01:51:06;16.00;90.20
36424;DHT22;22458;45.328;9.514;2023-05-15T01:53:35;16.00;90.20
36424;DHT22;22458;45.328;9.514;2023-05-15T01:56:04;16.00;90.10
36424;DHT22;22458;45.328;9.514;2023-05-15T01:58:31;16.00;90.10
36424;DHT22;22458;45.328;9.514;2023-05-15T02:00:59;16.00;90.10
36424;DHT22;22458;45.328;9.514;2023-05-15T02:03:25;16.00;90.00
36424;DHT22;22458;45.328;9.514;2023-05-15T02:05:52;15.90;90.00
36424;DHT22;22458;45.328;9.514;2023-05-15T02:08:19;15.90;90.00
36424;DHT22;22458;45.328;9.514;2023-05-15T02:10:47;15.90;90.10
36424;DHT22;22458;45.328;9.514;2023-05-15T02:13:14;15.90;90.10
36424;DHT22;22458;45.328;9.514;2023-05-15T02:15:40;15.90;90.10
36424;DHT22;22458;45.328;9.514;2023-05-15T02:18:05;15.80;90.10
36424;DHT22;22458;45.328;9.514;2023-05-15T02:20:31;15.80;90.20
36424;DHT22;22458;45.328;9.514;2023-05-15T02:22:57;15.70;90.30
36424;DHT22;22458;45.328;9.514;2023-05-15T02:25:42;15.70;90.30
36424;DHT22;22458;45.328;9.514;2023-05-15T02:28:20;15.70;90.40
36424;DHT22;22458;45.328;9.514;2023-05-15T02:30:54;15.70;90.40
36424;DHT22;22458;45.328;9.514;2023-05-15T02:33:30;15.70;90.50
36424;DHT22;22458;45.328;9.514;2023-05-15T02:36:08;15.80;90.30
36424;DHT22;22458;45.328;9.514;2023-05-15T02:38:51;15.70;90.50
36424;DHT22;22458;45.328;9.514;2023-05-15T02:41:18;15.70;90.20
36424;DHT22;22458;45.328;9.514;2023-05-15T02:43:45;15.70;90.30
36424;DHT22;22458;45.328;9.514;2023-05-15T02:46:13;15.70;90.20
36424;DHT22;22458;45.328;9.514;2023-05-15T02:48:41;15.70;90.20
36424;DHT22;22458;45.328;9.514;2023-05-15T02:51:07;15.70;90.10
36424;DHT22;22458;45.328;9.514;2023-05-15T02:53:41;15.70;90.10
36424;DHT22;22458;45.328;9.514;2023-05-15T02:56:08;15.70;90.10
36424;DHT22;22458;45.328;9.514;2023-05-15T02:58:34;15.70;90.00
36424;DHT22;22458;45.328;9.514;2023-05-15T03:01:00;15.60;90.00
36424;DHT22;22458;45.328;9.514;2023-05-15T03:03:25;15.60;90.00
36424;DHT22;22458;45.328;9.514;2023-05-15T03:05:51;15.50;90.10
36424;DHT22;22458;45.328;9.514;2023-05-15T03:08:18;15.50;90.20
36424;DHT22;22458;45.328;9.514;2023-05-15T03:10:44;15.50;90.20
36424;DHT22;22458;45.328;9.514;2023-05-15T03:13:10;15.50;90.20
36424;DHT22;22458;45.328;9.514;2023-05-15T03:15:36;15.50;90.20
36424;DHT22;22458;45.328;9.514;2023-05-15T03:18:01;15.50;90.20
36424;DHT22;22458;45.328;9.514;2023-05-15T03:20:27;15.50;90.20
36424;DHT22;22458;45.328;9.514;2023-05-15T03:22:53;15.40;90.20
36424;DHT22;22458;45.328;9.514;2023-05-15T03:25:19;15.50;90.20
36424;DHT22;22458;45.328;9.514;2023-05-15T03:27:45;15.40;90.30
36424;DHT22;22458;45.328;9.514;2023-05-15T03:30:11;15.40;90.20
36424;DHT22;22458;45.328;9.514;2023-05-15T03:32:37;15.40;90.10
36424;DHT22;22458;45.328;9.514;2023-05-15T03:35:03;15.40;90.10
36424;DHT22;22458;45.328;9.514;2023-05-15T03:37:28;15.40;90.00
36424;DHT22;22458;45.328;9.514;2023-05-15T03:39:54;15.40;89.90
36424;DHT22;22458;45.328;9.514;2023-05-15T03:42:20;15.40;89.80
36424;DHT22;22458;45.328;9.514;2023-05-15T03:44:51;15.40;89.80
36424;DHT22;22458;45.328;9.514;2023-05-15T03:47:17;15.30;89.80
36424;DHT22;22458;45.328;9.514;2023-05-15T03:49:42;15.30;89.80
36424;DHT22;22458;45.328;9.514;2023-05-15T03:52:08;15.30;89.70
36424;DHT22;22458;45.328;9.514;2023-05-15T03:54:34;15.30;89.60
36424;DHT22;22458;45.328;9.514;2023-05-15T03:57:00;15.30;89.50
36424;DHT22;22458;45.328;9.514;2023-05-15T03:59:28;15.20;90.10
36424;DHT22;22458;45.328;9.514;2023-05-15T04:01:57;15.10;90.00
36424;DHT22;22458;45.328;9.514;2023-05-15T04:04:23;15.10;90.10
36424;DHT22;22458;45.328;9.514;2023-05-15T04:06:50;15.00;90.20
36424;DHT22;22458;45.328;9.514;2023-05-15T04:09:16;15.00;90.30
36424;DHT22;22458;45.328;9.514;2023-05-15T04:11:41;14.90;90.50
36424;DHT22;22458;45.328;9.514;2023-05-15T04:14:07;14.90;90.60
36424;DHT22;22458;45.328;9.514;2023-05-15T04:16:33;14.80;90.70
36424;DHT22;22458;45.328;9.514;2023-05-15T04:19:00;14.80;90.90
36424;DHT22;22458;45.328;9.514;2023-05-15T04:21:26;14.70;90.90
36424;DHT22;22458;45.328;9.514;2023-05-15T04:23:52;14.70;91.00
36424;DHT22;22458;45.328;9.514;2023-05-15T04:26:17;14.70;91.00
36424;DHT22;22458;45.328;9.514;2023-05-15T04:28:43;14.60;91.00
36424;DHT22;22458;45.328;9.514;2023-05-15T04:31:09;14.70;91.10
36424;DHT22;22458;45.328;9.514;2023-05-15T04:33:35;14.60;91.20
36424;DHT22;22458;45.328;9.514;2023-05-15T04:36:00;14.60;91.20
36424;DHT22;22458;45.328;9.514;2023-05-15T04:38:26;14.60;91.20
36424;DHT22;22458;45.328;9.514;2023-05-15T04:40:52;14.60;91.30
36424;DHT22;22458;45.328;9.514;2023-05-15T04:43:19;14.60;91.30
36424;DHT22;22458;45.328;9.514;2023-05-15T04:45:45;14.60;91.30
36424;DHT22;22458;45.328;9.514;2023-05-15T04:48:11;14.50;91.30
36424;DHT22;22458;45.328;9.514;2023-05-15T04:50:37;14.50;91.40
36424;DHT22;22458;45.328;9.514;2023-05-15T04:53:03;14.50;91.50
36424;DHT22;22458;45.328;9.514;2023-05-15T04:55:28;14.60;91.60
36424;DHT22;22458;45.328;9.514;2023-05-15T04:57:56;14.60;91.60
36424;DHT22;22458;45.328;9.514;2023-05-15T05:00:21;14.60;91.70
36424;DHT22;22458;45.328;9.514;2023-05-15T05:02:47;14.60;91.70
36424;DHT22;22458;45.328;9.514;2023-05-15T05:05:13;14.40;91.90
36424;DHT22;22458;45.328;9.514;2023-05-15T05:07:39;14.40;92.00
36424;DHT22;22458;45.328;9.514;2023-05-15T05:10:05;14.50;92.10
36424;DHT22;22458;45.328;9.514;2023-05-15T05:12:31;14.60;92.20
36424;DHT22;22458;45.328;9.514;2023-05-15T05:14:57;14.60;92.10
36424;DHT22;22458;45.328;9.514;2023-05-15T05:17:22;14.70;92.20
36424;DHT22;22458;45.328;9.514;2023-05-15T05:19:48;14.80;92.20
36424;DHT22;22458;45.328;9.514;2023-05-15T05:22:14;14.70;92.50
36424;DHT22;22458;45.328;9.514;2023-05-15T05:24:40;14.70;92.40
36424;DHT22;22458;45.328;9.514;2023-05-15T05:27:06;14.80;92.50
36424;DHT22;22458;45.328;9.514;2023-05-15T05:29:32;14.90;92.50
36424;DHT22;22458;45.328;9.514;2023-05-15T05:31:58;15.00;92.50
36424;DHT22;22458;45.328;9.514;2023-05-15T05:34:24;15.10;92.50
36424;DHT22;22458;45.328;9.514;2023-05-15T05:36:50;15.20;92.50
36424;DHT22;22458;45.328;9.514;2023-05-15T05:39:16;15.20;92.50
36424;DHT22;22458;45.328;9.514;2023-05-15T05:41:42;15.30;92.60
36424;DHT22;22458;45.328;9.514;2023-05-15T05:44:08;15.30;92.90
36424;DHT22;22458;45.328;9.514;2023-05-15T05:46:34;15.30;92.70
36424;DHT22;22458;45.328;9.514;2023-05-15T05:49:00;15.40;92.80
36424;DHT22;22458;45.328;9.514;2023-05-15T05:51:25;15.40;92.80
36424;DHT22;22458;45.328;9.514;2023-05-15T05:53:51;15.50;92.90
36424;DHT22;22458;45.328;9.514;2023-05-15T05:56:17;15.60;92.90
36424;DHT22;22458;45.328;9.514;2023-05-15T05:58:43;15.60;93.00
36424;DHT22;22458;45.328;9.514;2023-05-15T06:01:08;15.70;93.00
36424;DHT22;22458;45.328;9.514;2023-05-15T06:03:35;15.70;93.10
36424;DHT22;22458;45.328;9.514;2023-05-15T06:06:01;15.70;93.10
36424;DHT22;22458;45.328;9.514;2023-05-15T06:08:28;15.80;93.10
36424;DHT22;22458;45.328;9.514;2023-05-15T06:10:54;15.80;93.10
36424;DHT22;22458;45.328;9.514;2023-05-15T06:13:20;15.90;93.10
36424;DHT22;22458;45.328;9.514;2023-05-15T06:15:45;16.00;93.00
36424;DHT22;22458;45.328;9.514;2023-05-15T06:18:12;16.10;93.00
36424;DHT22;22458;45.328;9.514;2023-05-15T06:20:37;16.10;93.00
36424;DHT22;22458;45.328;9.514;2023-05-15T06:23:03;16.20;93.10
36424;DHT22;22458;45.328;9.514;2023-05-15T06:25:29;16.20;93.00
36424;DHT22;22458;45.328;9.514;2023-05-15T06:27:55;16.20;92.90
36424;DHT22;22458;45.328;9.514;2023-05-15T06:30:21;16.30;92.90
36424;DHT22;22458;45.328;9.514;2023-05-15T06:32:46;16.40;92.80
36424;DHT22;22458;45.328;9.514;2023-05-15T06:35:12;16.50;92.70
36424;DHT22;22458;45.328;9.514;2023-05-15T06:37:38;16.60;92.60
36424;DHT22;22458;45.328;9.514;2023-05-15T06:40:04;16.60;92.60
36424;DHT22;22458;45.328;9.514;2023-05-15T06:42:31;16.60;92.60
36424;DHT22;22458;45.328;9.514;2023-05-15T06:44:56;16.70;92.70
36424;DHT22;22458;45.328;9.514;2023-05-15T06:47:22;16.70;92.70
36424;DHT22;22458;45.328;9.514;2023-05-15T06:49:48;16.70;92.70
36424;DHT22;22458;45.328;9.514;2023-05-15T06:52:14;16.80;92.60
36424;DHT22;22458;45.328;9.514;2023-05-15T06:54:39;16.90;92.50
36424;DHT22;22458;45.328;9.514;2023-05-15T06:57:07;16.80;92.40
36424;DHT22;22458;45.328;9.514;2023-05-15T06:59:33;16.90;92.40
36424;DHT22;22458;45.328;9.514;2023-05-15T07:02:03;16.90;92.40
36424;DHT22;22458;45.328;9.514;2023-05-15T07:04:29;16.90;92.40
36424;DHT22;22458;45.328;9.514;2023-05-15T07:06:57;16.80;92.50
36424;DHT22;22458;45.328;9.514;2023-05-15T07:09:23;16.90;92.50
36424;DHT22;22458;45.328;9.514;2023-05-15T07:11:49;17.00;92.40
36424;DHT22;22458;45.328;9.514;2023-05-15T07:14:15;16.90;92.40
36424;DHT22;22458;45.328;9.514;2023-05-15T07:16:41;16.90;92.40
36424;DHT22;22458;45.328;9.514;2023-05-15T07:19:07;17.00;92.30
36424;DHT22;22458;45.328;9.514;2023-05-15T07:21:33;17.10;92.10
36424;DHT22;22458;45.328;9.514;2023-05-15T07:24:00;17.10;92.10
36424;DHT22;22458;45.328;9.514;2023-05-15T07:26:25;17.20;92.00
36424;DHT22;22458;45.328;9.514;2023-05-15T07:28:51;17.20;91.80
36424;DHT22;22458;45.328;9.514;2023-05-15T07:31:17;17.30;91.70
36424;DHT22;22458;45.328;9.514;2023-05-15T07:33:43;17.30;91.60
36424;DHT22;22458;45.328;9.514;2023-05-15T07:36:08;17.40;91.50
36424;DHT22;22458;45.328;9.514;2023-05-15T07:38:34;17.40;91.30
36424;DHT22;22458;45.328;9.514;2023-05-15T07:41:00;17.60;91.30
36424;DHT22;22458;45.328;9.514;2023-05-15T07:43:26;17.70;91.10
36424;DHT22;22458;45.328;9.514;2023-05-15T07:45:52;17.80;91.00
36424;DHT22;22458;45.328;9.514;2023-05-15T07:48:19;18.00;90.80
36424;DHT22;22458;45.328;9.514;2023-05-15T07:50:46;18.00;90.60
36424;DHT22;22458;45.328;9.514;2023-05-15T07:53:14;18.10;90.40
36424;DHT22;22458;45.328;9.514;2023-05-15T07:55:43;18.10;90.30
36424;DHT22;22458;45.328;9.514;2023-05-15T07:58:09;18.20;90.50
36424;DHT22;22458;45.328;9.514;2023-05-15T08:00:35;18.30;90.00
36424;DHT22;22458;45.328;9.514;2023-05-15T08:03:01;18.40;89.40
36424;DHT22;22458;45.328;9.514;2023-05-15T08:05:27;18.50;89.00
36424;DHT22;22458;45.328;9.514;2023-05-15T08:07:54;18.50;88.40
36424;DHT22;22458;45.328;9.514;2023-05-15T08:10:20;18.60;88.20
36424;DHT22;22458;45.328;9.514;2023-05-15T08:12:46;18.70;88.20
36424;DHT22;22458;45.328;9.514;2023-05-15T08:15:13;18.70;88.10
36424;DHT22;22458;45.328;9.514;2023-05-15T08:17:38;18.80;88.20
36424;DHT22;22458;45.328;9.514;2023-05-15T08:20:07;18.80;87.90
36424;DHT22;22458;45.328;9.514;2023-05-15T08:22:33;18.90;87.10
36424;DHT22;22458;45.328;9.514;2023-05-15T08:24:58;18.90;86.70
36424;DHT22;22458;45.328;9.514;2023-05-15T08:27:25;19.00;86.90
36424;DHT22;22458;45.328;9.514;2023-05-15T08:29:51;19.10;87.10
36424;DHT22;22458;45.328;9.514;2023-05-15T08:32:19;19.20;86.80
36424;DHT22;22458;45.328;9.514;2023-05-15T08:34:44;19.30;86.60
36424;DHT22;22458;45.328;9.514;2023-05-15T08:37:10;19.50;86.60
36424;DHT22;22458;45.328;9.514;2023-05-15T08:39:36;19.60;86.40
36424;DHT22;22458;45.328;9.514;2023-05-15T08:44:31;19.80;85.60
36424;DHT22;22458;45.328;9.514;2023-05-15T08:46:58;19.90;85.50
36424;DHT22;22458;45.328;9.514;2023-05-15T08:49:26;19.90;85.10
36424;DHT22;22458;45.328;9.514;2023-05-15T08:51:55;20.00;85.00
36424;DHT22;22458;45.328;9.514;2023-05-15T08:54:21;20.10;85.00
36424;DHT22;22458;45.328;9.514;2023-05-15T08:56:47;20.20;84.70
36424;DHT22;22458;45.328;9.514;2023-05-15T08:59:13;20.40;84.70
36424;DHT22;22458;45.328;9.514;2023-05-15T09:01:39;20.60;84.50
36424;DHT22;22458;45.328;9.514;2023-05-15T09:04:04;20.70;84.10
36424;DHT22;22458;45.328;9.514;2023-05-15T09:06:32;20.80;83.50
36424;DHT22;22458;45.328;9.514;2023-05-15T09:09:00;20.90;82.80
36424;DHT22;22458;45.328;9.514;2023-05-15T09:11:26;21.00;82.50
36424;DHT22;22458;45.328;9.514;2023-05-15T09:13:57;21.10;82.20
36424;DHT22;22458;45.328;9.514;2023-05-15T09:16:23;21.00;81.70
36424;DHT22;22458;45.328;9.514;2023-05-15T09:18:48;21.00;81.60
36424;DHT22;22458;45.328;9.514;2023-05-15T09:21:24;21.10;81.20
36424;DHT22;22458;45.328;9.514;2023-05-15T09:23:54;21.10;81.00
36424;DHT22;22458;45.328;9.514;2023-05-15T09:26:20;21.00;81.10
36424;DHT22;22458;45.328;9.514;2023-05-15T09:28:47;21.10;80.90
36424;DHT22;22458;45.328;9.514;2023-05-15T09:31:13;21.20;80.70
36424;DHT22;22458;45.328;9.514;2023-05-15T09:33:40;21.30;80.40
36424;DHT22;22458;45.328;9.514;2023-05-15T09:36:07;21.40;80.10
36424;DHT22;22458;45.328;9.514;2023-05-15T09:38:42;21.50;79.60
36424;DHT22;22458;45.328;9.514;2023-05-15T09:41:12;21.60;79.20
36424;DHT22;22458;45.328;9.514;2023-05-15T09:43:39;21.70;79.00
36424;DHT22;22458;45.328;9.514;2023-05-15T09:46:07;21.70;78.90
36424;DHT22;22458;45.328;9.514;2023-05-15T09:48:34;21.70;78.70
36424;DHT22;22458;45.328;9.514;2023-05-15T09:51:00;21.80;78.20
36424;DHT22;22458;45.328;9.514;2023-05-15T09:53:27;21.90;77.80
36424;DHT22;22458;45.328;9.514;2023-05-15T09:55:53;21.90;77.50
36424;DHT22;22458;45.328;9.514;2023-05-15T09:58:19;21.90;77.20
36424;DHT22;22458;45.328;9.514;2023-05-15T10:00:46;21.90;76.90
36424;DHT22;22458;45.328;9.514;2023-05-15T10:03:13;21.70;77.00
36424;DHT22;22458;45.328;9.514;2023-05-15T10:05:39;21.70;77.40
36424;DHT22;22458;45.328;9.514;2023-05-15T10:08:05;21.90;77.40
36424;DHT22;22458;45.328;9.514;2023-05-15T10:10:31;22.00;77.30
36424;DHT22;22458;45.328;9.514;2023-05-15T10:12:59;22.10;77.20
36424;DHT22;22458;45.328;9.514;2023-05-15T10:15:28;22.20;76.90
36424;DHT22;22458;45.328;9.514;2023-05-15T10:17:54;22.40;76.70
36424;DHT22;22458;45.328;9.514;2023-05-15T10:20:22;22.40;76.30
36424;DHT22;22458;45.328;9.514;2023-05-15T10:22:54;22.50;75.90
36424;DHT22;22458;45.328;9.514;2023-05-15T10:25:44;22.60;75.40
36424;DHT22;22458;45.328;9.514;2023-05-15T10:28:13;22.60;75.10
36424;DHT22;22458;45.328;9.514;2023-05-15T10:30:41;22.60;75.30
36424;DHT22;22458;45.328;9.514;2023-05-15T10:33:07;22.80;75.30
36424;DHT22;22458;45.328;9.514;2023-05-15T10:35:34;22.80;75.20
36424;DHT22;22458;45.328;9.514;2023-05-15T10:38:03;22.90;75.20
36424;DHT22;22458;45.328;9.514;2023-05-15T10:40:29;22.90;75.00
36424;DHT22;22458;45.328;9.514;2023-05-15T10:42:58;22.90;75.30
36424;DHT22;22458;45.328;9.514;2023-05-15T10:45:26;22.90;74.80
36424;DHT22;22458;45.328;9.514;2023-05-15T10:47:52;22.90;74.80
36424;DHT22;22458;45.328;9.514;2023-05-15T10:50:18;22.90;74.20
36424;DHT22;22458;45.328;9.514;2023-05-15T10:52:45;23.00;74.20
36424;DHT22;22458;45.328;9.514;2023-05-15T10:55:15;23.10;74.10
36424;DHT22;22458;45.328;9.514;2023-05-15T10:57:44;23.20;73.90
36424;DHT22;22458;45.328;9.514;2023-05-15T11:00:28;23.40;74.10
36424;DHT22;22458;45.328;9.514;2023-05-15T11:02:56;23.50;74.00
36424;DHT22;22458;45.328;9.514;2023-05-15T11:05:23;23.60;73.80
36424;DHT22;22458;45.328;9.514;2023-05-15T11:10:40;23.90;73.20
36424;DHT22;22458;45.328;9.514;2023-05-15T11:13:06;23.90;72.90
36424;DHT22;22458;45.328;9.514;2023-05-15T11:15:41;23.90;73.30
36424;DHT22;22458;45.328;9.514;2023-05-15T11:18:07;23.90;72.60
36424;DHT22;22458;45.328;9.514;2023-05-15T11:20:40;24.00;72.30
36424;DHT22;22458;45.328;9.514;2023-05-15T11:23:06;24.00;72.20
36424;DHT22;22458;45.328;9.514;2023-05-15T11:25:33;24.00;72.30
36424;DHT22;22458;45.328;9.514;2023-05-15T11:28:02;24.00;72.20
36424;DHT22;22458;45.328;9.514;2023-05-15T11:30:50;24.10;72.20
36424;DHT22;22458;45.328;9.514;2023-05-15T11:33:16;24.20;71.90
36424;DHT22;22458;45.328;9.514;2023-05-15T11:35:43;24.20;72.00
36424;DHT22;22458;45.328;9.514;2023-05-15T11:38:16;24.30;71.60
36424;DHT22;22458;45.328;9.514;2023-05-15T11:40:44;24.40;71.30
36424;DHT22;22458;45.328;9.514;2023-05-15T11:43:21;24.40;71.60
36424;DHT22;22458;45.328;9.514;2023-05-15T11:45:53;24.50;71.80
36424;DHT22;22458;45.328;9.514;2023-05-15T11:48:22;24.40;71.50
36424;DHT22;22458;45.328;9.514;2023-05-15T11:50:48;24.50;71.10
36424;DHT22;22458;45.328;9.514;2023-05-15T11:53:15;24.50;70.90
36424;DHT22;22458;45.328;9.514;2023-05-15T11:55:43;24.60;70.70
36424;DHT22;22458;45.328;9.514;2023-05-15T11:58:14;24.60;70.20
36424;DHT22;22458;45.328;9.514;2023-05-15T12:00:45;24.70;69.50
36424;DHT22;22458;45.328;9.514;2023-05-15T12:03:15;24.80;69.30
36424;DHT22;22458;45.328;9.514;2023-05-15T12:05:41;24.90;69.30
36424;DHT22;22458;45.328;9.514;2023-05-15T12:08:12;25.00;69.00
36424;DHT22;22458;45.328;9.514;2023-05-15T12:10:42;25.10;68.80
36424;DHT22;22458;45.328;9.514;2023-05-15T12:13:10;25.20;69.00
36424;DHT22;22458;45.328;9.514;2023-05-15T12:15:37;25.20;68.70
36424;DHT22;22458;45.328;9.514;2023-05-15T12:18:04;25.20;68.60
36424;DHT22;22458;45.328;9.514;2023-05-15T12:20:32;25.20;68.50
36424;DHT22;22458;45.328;9.514;2023-05-15T12:22:59;25.20;68.30
36424;DHT22;22458;45.328;9.514;2023-05-15T12:25:25;25.30;68.00
36424;DHT22;22458;45.328;9.514;2023-05-15T12:27:51;25.30;67.60
36424;DHT22;22458;45.328;9.514;2023-05-15T12:30:18;25.30;67.50
36424;DHT22;22458;45.328;9.514;2023-05-15T12:32:44;25.40;67.40
36424;DHT22;22458;45.328;9.514;2023-05-15T12:35:10;25.40;67.60
36424;DHT22;22458;45.328;9.514;2023-05-15T12:37:40;25.40;67.70
36424;DHT22;22458;45.328;9.514;2023-05-15T12:40:06;25.40;68.00
36424;DHT22;22458;45.328;9.514;2023-05-15T12:42:40;25.50;68.00
36424;DHT22;22458;45.328;9.514;2023-05-15T12:45:16;25.60;68.00
36424;DHT22;22458;45.328;9.514;2023-05-15T12:47:43;25.70;67.30
36424;DHT22;22458;45.328;9.514;2023-05-15T12:50:18;25.70;66.80
36424;DHT22;22458;45.328;9.514;2023-05-15T12:52:56;25.80;66.10
36424;DHT22;22458;45.328;9.514;2023-05-15T12:55:24;25.80;66.20
36424;DHT22;22458;45.328;9.514;2023-05-15T12:57:55;25.80;66.40
36424;DHT22;22458;45.328;9.514;2023-05-15T13:00:22;25.80;66.40
36424;DHT22;22458;45.328;9.514;2023-05-15T13:02:51;25.70;66.00
36424;DHT22;22458;45.328;9.514;2023-05-15T13:05:17;25.80;65.80
36424;DHT22;22458;45.328;9.514;2023-05-15T13:07:43;25.80;65.80
36424;DHT22;22458;45.328;9.514;2023-05-15T13:10:11;25.90;65.40
36424;DHT22;22458;45.328;9.514;2023-05-15T13:12:44;26.00;65.00
36424;DHT22;22458;45.328;9.514;2023-05-15T13:15:36;26.00;65.00
36424;DHT22;22458;45.328;9.514;2023-05-15T13:20:36;26.10;65.60
36424;DHT22;22458;45.328;9.514;2023-05-15T13:23:03;26.10;65.40
36424;DHT22;22458;45.328;9.514;2023-05-15T13:25:29;26.10;65.10
36424;DHT22;22458;45.328;9.514;2023-05-15T13:27:59;26.10;65.10
36424;DHT22;22458;45.328;9.514;2023-05-15T13:30:26;26.10;65.00
36424;DHT22;22458;45.328;9.514;2023-05-15T13:32:52;26.10;64.70
36424;DHT22;22458;45.328;9.514;2023-05-15T13:35:18;26.20;64.80
36424;DHT22;22458;45.328;9.514;2023-05-15T13:37:43;26.20;64.60
36424;DHT22;22458;45.328;9.514;2023-05-15T13:40:11;26.20;64.70
36424;DHT22;22458;45.328;9.514;2023-05-15T13:42:38;26.40;64.70
36424;DHT22;22458;45.328;9.514;2023-05-15T13:45:06;26.40;63.30
36424;DHT22;22458;45.328;9.514;2023-05-15T13:47:32;26.40;62.70
36424;DHT22;22458;45.328;9.514;2023-05-15T13:49:58;26.30;62.30
36424;DHT22;22458;45.328;9.514;2023-05-15T13:52:25;26.40;62.60
36424;DHT22;22458;45.328;9.514;2023-05-15T13:54:51;26.40;62.40
36424;DHT22;22458;45.328;9.514;2023-05-15T13:57:17;26.40;62.20
36424;DHT22;22458;45.328;9.514;2023-05-15T13:59:43;26.50;62.10
36424;DHT22;22458;45.328;9.514;2023-05-15T14:02:09;26.40;61.50
36424;DHT22;22458;45.328;9.514;2023-05-15T14:04:35;26.50;61.60
36424;DHT22;22458;45.328;9.514;2023-05-15T14:07:00;26.50;61.60
36424;DHT22;22458;45.328;9.514;2023-05-15T14:09:26;26.60;61.70
36424;DHT22;22458;45.328;9.514;2023-05-15T14:11:52;26.50;62.20
36424;DHT22;22458;45.328;9.514;2023-05-15T14:14:18;26.60;62.00
36424;DHT22;22458;45.328;9.514;2023-05-15T14:16:43;26.70;62.00
36424;DHT22;22458;45.328;9.514;2023-05-15T14:19:09;26.70;62.10
36424;DHT22;22458;45.328;9.514;2023-05-15T14:21:35;26.70;62.20
36424;DHT22;22458;45.328;9.514;2023-05-15T14:24:01;26.70;61.90
36424;DHT22;22458;45.328;9.514;2023-05-15T14:26:30;26.70;61.80
36424;DHT22;22458;45.328;9.514;2023-05-15T14:28:56;26.70;62.10
36424;DHT22;22458;45.328;9.514;2023-05-15T14:31:22;26.80;62.20
36424;DHT22;22458;45.328;9.514;2023-05-15T14:33:48;26.80;61.80
36424;DHT22;22458;45.328;9.514;2023-05-15T14:36:14;26.90;62.00
36424;DHT22;22458;45.328;9.514;2023-05-15T14:38:40;26.90;62.10
36424;DHT22;22458;45.328;9.514;2023-05-15T14:41:10;27.00;61.80
36424;DHT22;22458;45.328;9.514;2023-05-15T14:43:37;27.00;61.20
36424;DHT22;22458;45.328;9.514;2023-05-15T14:46:03;27.00;60.80
36424;DHT22;22458;45.328;9.514;2023-05-15T14:48:29;27.00;60.80
36424;DHT22;22458;45.328;9.514;2023-05-15T14:50:56;27.00;61.10
36424;DHT22;22458;45.328;9.514;2023-05-15T14:53:22;27.00;61.40
36424;DHT22;22458;45.328;9.514;2023-05-15T14:55:47;27.00;61.10
36424;DHT22;22458;45.328;9.514;2023-05-15T14:58:13;27.00;61.10
36424;DHT22;22458;45.328;9.514;2023-05-15T15:00:39;27.00;60.70
36424;DHT22;22458;45.328;9.514;2023-05-15T15:03:06;27.10;60.30
36424;DHT22;22458;45.328;9.514;2023-05-15T15:05:32;27.10;60.10
36424;DHT22;22458;45.328;9.514;2023-05-15T15:08:08;27.10;60.30
36424;DHT22;22458;45.328;9.514;2023-05-15T15:10:36;27.00;60.40
36424;DHT22;22458;45.328;9.514;2023-05-15T15:13:04;27.00;60.50
36424;DHT22;22458;45.328;9.514;2023-05-15T15:15:32;27.00;60.60
36424;DHT22;22458;45.328;9.514;2023-05-15T15:17:58;27.10;60.60
36424;DHT22;22458;45.328;9.514;2023-05-15T15:20:25;27.00;60.80
36424;DHT22;22458;45.328;9.514;2023-05-15T15:22:52;27.00;61.20
36424;DHT22;22458;45.328;9.514;2023-05-15T15:25:18;27.00;61.10
36424;DHT22;22458;45.328;9.514;2023-05-15T15:27:45;27.00;61.50
36424;DHT22;22458;45.328;9.514;2023-05-15T15:30:11;27.00;61.50
36424;DHT22;22458;45.328;9.514;2023-05-15T15:32:38;27.00;61.50
36424;DHT22;22458;45.328;9.514;2023-05-15T15:35:04;27.00;61.50
36424;DHT22;22458;45.328;9.514;2023-05-15T15:37:32;27.00;61.60
36424;DHT22;22458;45.328;9.514;2023-05-15T15:39:58;27.10;61.70
36424;DHT22;22458;45.328;9.514;2023-05-15T15:42:24;27.10;61.80
36424;DHT22;22458;45.328;9.514;2023-05-15T15:44:52;27.10;61.90
36424;DHT22;22458;45.328;9.514;2023-05-15T15:47:18;27.10;62.50
36424;DHT22;22458;45.328;9.514;2023-05-15T15:49:44;27.00;61.80
36424;DHT22;22458;45.328;9.514;2023-05-15T15:52:09;27.00;61.80